Tallahassee, FL (32317)

8:11 PM EDT on October 01, 2014 (GMT -0400)
Avondale | Change Station
CLOSE
Current Station
Personal Weather Station
Location: Tallahassee, FL
Elevation: 94 ft
Nearby Weather Stations

Elev 94 ft 30.46 °N, 84.18 °W | Updated 1 minute ago

Partly Cloudy
Partly Cloudy
74.1 °F
Feels Like 73 °F
N
0.0
Wind Variable Wind from North
Gusts 0.0 mph

Today
High -- | Low -- °F
--% Chance of Precip.
Yesterday
High -- | Low -- °F
Precip. -- in
7:29 AM 7:21 PM
First Quarter, 52% visible
Pressure 29.95 in
Visibility 10.0 miles
Clouds Few 5000 ft
Mostly Cloudy 25000 ft
Heat Index 73 °F
Dew Point 70 °F
Humidity 88%
Rainfall 0.00 in
Snow Depth Not available.
UV 0 out of 12
Pollen 8.40 out of 12
Air Quality Not available.
Flu Activity Not available.
METAR KTLH 012353Z 00000KT 10SM FEW050 BKN250 24/21 A2995 RMK AO2 SLP142 T02440211 10294 20244 53009

More Conditions Fewer Conditions

Pressure 29.95 in
Visibility 10.0 miles
Clouds Few 5000 ft
Mostly Cloudy 25000 ft
Heat Index 73 °F
Dew Point 70 °F
Humidity 88%
Rainfall 0.00 in
Snow Depth Not available.
UV 0 out of 12
Pollen 8.40 out of 12
Air Quality Not available.
Flu Activity Not available.
METAR KTLH 012353Z 00000KT 10SM FEW050 BKN250 24/21 A2995 RMK AO2 SLP142 T02440211 10294 20244 53009

More Conditions Fewer Conditions

10-Day Weather Forecast

Almanac

Astronomy

Oct. 01, 2014 Rise Set
Actual Time 7:29 AM EDT 7:21 PM EDT
Civil Twilight 7:05 AM EDT 7:45 PM EDT
Nautical Twilight 6:38 AM EDT 8:13 PM EDT
Astronomical Twilight 6:10 AM EDT 8:41 PM EDT
Moon 2:12 PM EDT (10/1) 12:10 AM EDT (10/1)
Length of Visible Light 12h 39m
Length of Day
11h 51m
Tomorrow will be 1m 50s shorter.
First Quarter, 52% of the Moon is Illuminated
Today
First Quarter
Oct 8
Full
Oct 15
Last Quarter
Oct 23
New
Oct 30
First Quarter

Today's Extremes

State Highs State Lows

Community

WunderPhotos

Upload Photos

1,758,097 photos uploaded!

WunderBlogs® & News

Nearby

Snow Depth

Station Depth Elevation
No new snow has been reported.

Earthquake Activity

City Distance Mag. Time & Date
No recent earthquake activity has been reported nearby.
Minimum magnitude displayed is 2.5.

Coastal Water Temperatures

Place Temperature
No Stations Reporting

Nearby Weather Stations